createdAt,value
2022-12-04T00:01:10.344Z,4.13
2022-12-04T00:03:37.235Z,4.15
2022-12-04T00:06:12.126Z,3.99
2022-12-04T00:08:39.413Z,4.10
2022-12-04T00:11:07.490Z,3.89
2022-12-04T00:13:34.563Z,3.97
2022-12-04T00:16:03.876Z,4.05
2022-12-04T00:18:30.311Z,4.18
2022-12-04T00:20:56.459Z,4.12
2022-12-04T00:23:22.859Z,4.10
2022-12-04T00:25:49.023Z,4.09
2022-12-04T00:28:16.594Z,4.08
2022-12-04T00:30:44.504Z,3.72
2022-12-04T00:33:13.683Z,3.96
2022-12-04T00:35:40.359Z,4.02
2022-12-04T00:38:07.047Z,4.16
2022-12-04T00:40:33.311Z,4.18
2022-12-04T00:42:59.681Z,4.03
2022-12-04T00:45:25.888Z,4.13
2022-12-04T00:47:52.344Z,4.25
2022-12-04T00:50:18.486Z,4.17
2022-12-04T00:52:44.854Z,4.30
2022-12-04T00:55:11.117Z,4.24
2022-12-04T00:57:37.552Z,4.22
2022-12-04T01:00:05.444Z,4.12
2022-12-04T01:02:31.847Z,4.22
2022-12-04T01:05:00.708Z,4.18
2022-12-04T01:07:27.298Z,4.22
2022-12-04T01:09:53.743Z,4.23
2022-12-04T01:12:21.115Z,4.36
2022-12-04T01:14:47.517Z,4.30
2022-12-04T01:17:13.899Z,4.37
2022-12-04T01:19:40.033Z,4.49
2022-12-04T01:22:06.351Z,4.37
2022-12-04T01:24:32.444Z,4.39
2022-12-04T01:26:58.872Z,4.35
2022-12-04T01:29:25.126Z,4.53
2022-12-04T01:31:51.599Z,4.49
2022-12-04T01:34:17.730Z,4.36
2022-12-04T01:36:44.202Z,4.45
2022-12-04T01:39:10.578Z,4.28
2022-12-04T01:41:37.077Z,4.43
2022-12-04T01:44:13.789Z,4.38
2022-12-04T01:46:41.696Z,4.52
2022-12-04T01:49:13.752Z,4.56
2022-12-04T01:51:44.828Z,4.71
2022-12-04T01:54:19.542Z,4.66
2022-12-04T01:56:54.353Z,4.71
2022-12-04T01:59:26.359Z,4.71
2022-12-04T02:01:59.002Z,4.77
2022-12-04T02:04:25.314Z,4.66
2022-12-04T02:06:51.748Z,4.76
2022-12-04T02:09:24.604Z,4.71
2022-12-04T02:12:23.450Z,4.44
2022-12-04T02:15:08.788Z,4.52
2022-12-04T02:17:53.574Z,4.42
2022-12-04T02:20:49.321Z,4.49
2022-12-04T02:23:46.914Z,4.41
2022-12-04T02:26:39.285Z,4.24
2022-12-04T02:29:23.662Z,4.50
2022-12-04T02:32:21.804Z,4.51
2022-12-04T02:34:59.571Z,4.48
2022-12-04T02:37:48.380Z,4.49
2022-12-04T02:40:23.012Z,4.52
2022-12-04T02:42:59.312Z,4.48
2022-12-04T02:45:39.582Z,4.51
2022-12-04T02:48:07.433Z,4.31
2022-12-04T02:50:39.628Z,4.28
2022-12-04T02:53:14.262Z,4.48
2022-12-04T02:55:54.523Z,4.41
2022-12-04T02:58:26.457Z,4.39
2022-12-04T03:00:55.324Z,4.46
2022-12-04T03:03:25.751Z,4.47
2022-12-04T03:06:13.064Z,4.49
2022-12-04T03:08:46.680Z,4.41
2022-12-04T03:11:13.034Z,4.68
2022-12-04T03:13:46.562Z,4.90
2022-12-04T03:16:27.862Z,5.03
2022-12-04T03:19:04.996Z,4.99
2022-12-04T03:21:37.679Z,4.81
2022-12-04T03:24:09.646Z,4.84
2022-12-04T03:26:59.206Z,4.79
2022-12-04T03:29:52.786Z,4.76
2022-12-04T03:33:02.475Z,4.78
2022-12-04T03:35:46.806Z,4.44
2022-12-04T03:38:37.426Z,4.51
2022-12-04T03:41:11.776Z,4.58
2022-12-04T03:43:55.087Z,4.60
2022-12-04T03:46:31.511Z,4.80
2022-12-04T03:49:03.897Z,4.81
2022-12-04T03:51:41.407Z,4.93
2022-12-04T03:54:14.247Z,5.08
2022-12-04T03:57:03.584Z,4.97
2022-12-04T03:59:37.474Z,4.89
2022-12-04T04:02:07.964Z,4.88
2022-12-04T04:04:36.659Z,4.94
2022-12-04T04:07:19.272Z,4.88
2022-12-04T04:09:49.574Z,4.78
2022-12-04T04:12:26.395Z,4.89
2022-12-04T04:15:15.362Z,4.73
2022-12-04T04:18:03.264Z,4.91
2022-12-04T04:21:09.377Z,4.88
2022-12-04T04:24:03.118Z,4.79
2022-12-04T04:26:34.873Z,4.79
2022-12-04T04:29:01.238Z,4.92
2022-12-04T04:31:46.346Z,4.89
2022-12-04T04:34:32.557Z,4.81
2022-12-04T04:37:20.835Z,4.67
2022-12-04T04:40:01.147Z,4.74
2022-12-04T04:42:42.655Z,4.90
2022-12-04T04:45:17.221Z,5.07
2022-12-04T04:48:06.486Z,5.24
2022-12-04T04:50:33.780Z,5.17
2022-12-04T04:53:09.129Z,5.23
2022-12-04T04:55:36.105Z,5.07
2022-12-04T04:58:10.678Z,5.30
2022-12-04T05:00:38.073Z,5.17
2022-12-04T05:03:05.047Z,4.98
2022-12-04T05:05:31.361Z,5.14
2022-12-04T05:07:57.760Z,5.20
2022-12-04T05:10:24.023Z,5.00
2022-12-04T05:12:50.452Z,4.99
2022-12-04T05:15:16.554Z,5.02
2022-12-04T05:17:42.926Z,5.09
2022-12-04T05:20:09.768Z,5.08
2022-12-04T05:22:37.345Z,4.97
2022-12-04T05:25:04.649Z,4.87
2022-12-04T05:27:31.394Z,4.99
2022-12-04T05:29:58.747Z,5.14
2022-12-04T05:32:27.525Z,5.10
2022-12-04T05:34:55.142Z,5.23
2022-12-04T05:37:21.970Z,5.41
2022-12-04T05:40:06.550Z,5.44
2022-12-04T05:42:32.965Z,5.39
2022-12-04T05:44:58.999Z,5.55
2022-12-04T05:47:25.466Z,5.52
2022-12-04T05:49:51.571Z,5.35
2022-12-04T05:52:17.998Z,5.43
2022-12-04T05:54:44.109Z,5.37
2022-12-04T05:57:10.483Z,5.50
2022-12-04T05:59:36.723Z,5.58
2022-12-04T06:02:03.194Z,5.71
2022-12-04T06:04:29.537Z,5.67
2022-12-04T06:06:56.008Z,5.59
2022-12-04T06:09:22.162Z,5.63
2022-12-04T06:11:48.491Z,5.59
2022-12-04T06:14:15.906Z,5.59
2022-12-04T06:16:45.476Z,5.61
2022-12-04T06:19:17.121Z,5.43
2022-12-04T06:21:45.932Z,5.37
2022-12-04T06:24:17.415Z,5.42
2022-12-04T06:27:10.991Z,5.41
2022-12-04T06:29:31.003Z,5.43
2022-12-04T06:31:57.752Z,5.39
2022-12-04T06:34:23.908Z,5.44
2022-12-04T06:36:50.340Z,5.25
2022-12-04T06:39:19.025Z,5.38
2022-12-04T06:41:46.749Z,5.38
2022-12-04T06:44:14.693Z,5.33
2022-12-04T06:46:46.437Z,5.32
2022-12-04T06:49:13.311Z,5.39
2022-12-04T06:51:40.173Z,5.37
2022-12-04T06:54:06.607Z,5.51
2022-12-04T06:56:33.313Z,5.53
2022-12-04T06:59:01.660Z,5.54
2022-12-04T07:01:29.877Z,5.50
2022-12-04T07:03:57.388Z,5.47
2022-12-04T07:06:32.433Z,5.34
2022-12-04T07:09:10.651Z,5.41
2022-12-04T07:11:38.541Z,5.51
2022-12-04T07:14:04.664Z,5.54
2022-12-04T07:16:36.700Z,5.71
2022-12-04T07:19:07.548Z,5.57
2022-12-04T07:21:34.201Z,5.43
2022-12-04T07:24:01.443Z,5.53
2022-12-04T07:26:29.944Z,5.51
2022-12-04T07:28:56.899Z,5.49
2022-12-04T07:31:25.000Z,5.63
2022-12-04T07:33:54.040Z,5.52
2022-12-04T07:36:22.161Z,5.44
2022-12-04T07:38:48.695Z,5.42
2022-12-04T07:41:15.713Z,5.49
2022-12-04T07:43:42.065Z,5.67
2022-12-04T07:46:22.767Z,5.70
2022-12-04T07:48:49.017Z,5.83
2022-12-04T07:51:20.987Z,5.86
2022-12-04T07:53:48.740Z,6.00
2022-12-04T07:56:16.215Z,6.00
2022-12-04T07:58:43.190Z,6.09
2022-12-04T08:01:12.431Z,5.88
2022-12-04T08:03:45.441Z,6.04
2022-12-04T08:06:14.554Z,5.72
2022-12-04T08:08:41.047Z,5.59
2022-12-04T08:11:10.098Z,5.61
2022-12-04T08:13:36.423Z,5.64
2022-12-04T08:16:04.794Z,5.57
2022-12-04T08:18:32.078Z,5.61
2022-12-04T08:21:06.990Z,5.67
2022-12-04T08:23:34.023Z,5.78
2022-12-04T08:26:00.948Z,5.89
2022-12-04T08:28:28.223Z,5.57
2022-12-04T08:30:55.328Z,5.49
2022-12-04T08:33:21.719Z,5.53
2022-12-04T08:35:48.391Z,5.56
2022-12-04T08:38:14.738Z,5.48
2022-12-04T08:40:41.816Z,5.72
2022-12-04T08:43:08.192Z,5.80
2022-12-04T08:45:34.676Z,5.74
2022-12-04T08:48:01.488Z,5.54
2022-12-04T08:50:27.943Z,5.47
2022-12-04T08:52:54.153Z,5.66
2022-12-04T08:55:20.659Z,5.73
2022-12-04T08:57:46.902Z,5.93
2022-12-04T09:00:14.884Z,5.93
2022-12-04T09:02:41.227Z,5.75
2022-12-04T09:05:08.097Z,5.94
2022-12-04T09:07:34.386Z,6.04
2022-12-04T09:10:02.576Z,5.98
2022-12-04T09:12:28.777Z,6.02
2022-12-04T09:14:55.400Z,6.16
2022-12-04T09:17:21.641Z,6.32
2022-12-04T09:19:49.653Z,6.24
2022-12-04T09:22:15.906Z,6.36
2022-12-04T09:24:42.791Z,6.28
2022-12-04T09:27:14.479Z,6.21
2022-12-04T09:29:41.741Z,6.42
2022-12-04T09:32:08.073Z,6.51
2022-12-04T09:34:34.798Z,6.61
2022-12-04T09:37:01.303Z,6.65
2022-12-04T09:39:28.357Z,6.60
2022-12-04T09:42:07.976Z,6.37
2022-12-04T09:44:43.589Z,6.30
2022-12-04T09:47:26.232Z,6.46
2022-12-04T09:49:58.609Z,6.57
2022-12-04T09:52:39.974Z,6.64
2022-12-04T09:55:30.231Z,6.49
2022-12-04T09:58:02.317Z,6.38
2022-12-04T10:00:31.401Z,6.27
2022-12-04T10:03:05.976Z,6.59
2022-12-04T10:05:44.268Z,6.68
2022-12-04T10:08:20.661Z,6.59
2022-12-04T10:11:00.063Z,6.60
2022-12-04T10:13:41.922Z,6.55
2022-12-04T10:16:14.415Z,6.51
2022-12-04T10:18:41.273Z,6.62
2022-12-04T10:21:37.320Z,6.62
2022-12-04T10:24:16.030Z,6.60
2022-12-04T10:26:45.959Z,6.50
2022-12-04T10:29:20.750Z,6.54
2022-12-04T10:31:49.644Z,6.32
2022-12-04T10:34:20.841Z,6.34
2022-12-04T10:36:53.537Z,6.40
2022-12-04T10:39:26.317Z,6.43
2022-12-04T10:42:09.813Z,6.44
2022-12-04T10:44:36.181Z,6.50
2022-12-04T10:47:03.414Z,6.20
2022-12-04T10:49:33.491Z,6.31
2022-12-04T10:52:00.176Z,6.35
2022-12-04T10:54:35.260Z,6.40
2022-12-04T10:57:05.065Z,6.62
2022-12-04T10:59:31.842Z,6.52
2022-12-04T11:02:19.588Z,6.36
2022-12-04T11:04:57.481Z,6.48
2022-12-04T11:07:27.208Z,6.51
2022-12-04T11:09:56.294Z,6.52
2022-12-04T11:12:23.682Z,6.49
2022-12-04T11:15:09.320Z,6.49
2022-12-04T11:17:35.836Z,6.63
2022-12-04T11:20:07.544Z,6.64
2022-12-04T11:22:48.861Z,6.59
2022-12-04T11:25:19.035Z,6.57
2022-12-04T11:27:51.973Z,6.72
2022-12-04T11:30:30.478Z,6.69
2022-12-04T11:32:57.880Z,6.60
2022-12-04T11:35:27.232Z,6.57
2022-12-04T11:38:15.457Z,6.48
2022-12-04T11:40:56.234Z,6.56
2022-12-04T11:43:29.058Z,6.56
2022-12-04T11:45:59.699Z,6.56
2022-12-04T11:48:29.392Z,6.62
2022-12-04T11:51:20.025Z,6.57
2022-12-04T11:54:06.249Z,6.63
2022-12-04T11:56:47.259Z,6.66
2022-12-04T11:59:32.557Z,6.68
2022-12-04T12:02:37.850Z,6.80
2022-12-04T12:05:42.891Z,6.63
2022-12-04T12:08:33.883Z,6.85
2022-12-04T12:11:26.045Z,6.84
2022-12-04T12:14:31.484Z,6.84
2022-12-04T12:17:22.868Z,6.60
2022-12-04T12:20:25.266Z,6.52
2022-12-04T12:22:51.619Z,6.60
2022-12-04T12:25:51.917Z,6.63
2022-12-04T12:28:32.529Z,6.63
2022-12-04T12:31:23.327Z,6.64
2022-12-04T12:33:59.727Z,6.44
2022-12-04T12:36:33.198Z,6.40
2022-12-04T12:39:06.800Z,6.44
2022-12-04T12:41:46.741Z,6.63
2022-12-04T12:44:22.570Z,6.45
2022-12-04T12:46:53.709Z,6.33
2022-12-04T12:49:31.679Z,6.29
2022-12-04T12:52:15.656Z,6.24
2022-12-04T12:54:47.708Z,6.20
2022-12-04T12:57:40.076Z,6.26
2022-12-04T13:00:19.046Z,6.28
2022-12-04T13:03:11.392Z,6.36
2022-12-04T13:05:45.338Z,6.48
2022-12-04T13:08:33.460Z,6.53
2022-12-04T13:11:17.367Z,6.53
2022-12-04T13:14:03.898Z,6.35
2022-12-04T13:16:33.841Z,6.29
2022-12-04T13:19:28.995Z,6.31
2022-12-04T13:22:14.903Z,6.46
2022-12-04T13:24:58.451Z,6.53
2022-12-04T13:27:32.753Z,6.52
2022-12-04T13:30:17.701Z,6.38
2022-12-04T13:33:25.811Z,6.39
2022-12-04T13:36:29.250Z,6.43
2022-12-04T13:39:17.761Z,6.53
2022-12-04T13:41:44.240Z,6.49
2022-12-04T13:44:22.514Z,6.46
2022-12-04T13:47:04.546Z,6.44
2022-12-04T13:49:35.797Z,6.39
2022-12-04T13:52:05.995Z,6.23
2022-12-04T13:54:35.043Z,6.25
2022-12-04T13:57:19.078Z,6.23
2022-12-04T13:59:46.844Z,6.32
2022-12-04T14:02:34.654Z,6.48
2022-12-04T14:05:13.772Z,6.61
2022-12-04T14:07:44.681Z,6.35
2022-12-04T14:10:14.301Z,6.45
2022-12-04T14:12:48.383Z,6.48
2022-12-04T14:15:29.328Z,6.20
2022-12-04T14:18:01.471Z,6.23
2022-12-04T14:20:34.304Z,6.19
2022-12-04T14:23:25.987Z,6.10
2022-12-04T14:25:57.516Z,6.15
2022-12-04T14:28:28.112Z,6.20
2022-12-04T14:31:18.909Z,6.48
2022-12-04T14:38:47.819Z,6.06
2022-12-04T14:41:23.337Z,6.02
2022-12-04T14:43:50.191Z,6.04
2022-12-04T14:46:17.074Z,5.88
2022-12-04T14:49:09.463Z,6.00
2022-12-04T14:51:50.814Z,5.88
2022-12-04T14:54:44.654Z,6.32
2022-12-04T14:57:23.477Z,6.11
2022-12-04T14:59:52.821Z,5.88
2022-12-04T15:02:24.428Z,5.83
2022-12-04T15:04:52.829Z,5.75
2022-12-04T15:07:24.744Z,5.90
2022-12-04T15:10:15.333Z,5.86
2022-12-04T15:12:50.949Z,5.70
2022-12-04T15:15:26.537Z,5.84
2022-12-04T15:18:14.363Z,5.69
2022-12-04T15:20:50.598Z,5.72
2022-12-04T15:23:27.204Z,5.75
2022-12-04T15:25:56.366Z,5.68
2022-12-04T15:28:33.793Z,5.59
2022-12-04T15:31:03.320Z,5.83
2022-12-04T15:33:34.272Z,5.89
2022-12-04T15:36:23.528Z,5.98
2022-12-04T15:38:52.499Z,5.92
2022-12-04T15:41:34.948Z,6.06
2022-12-04T15:44:02.828Z,5.94
2022-12-04T15:46:33.619Z,5.83
2022-12-04T15:49:16.114Z,5.83
2022-12-04T15:51:45.120Z,5.79
2022-12-04T15:54:29.931Z,5.68
2022-12-04T15:57:15.073Z,5.69
2022-12-04T15:59:48.959Z,5.49
2022-12-04T16:02:29.184Z,5.75
2022-12-04T16:04:56.356Z,5.74
2022-12-04T16:07:29.506Z,5.95
2022-12-04T16:10:03.627Z,5.90
2022-12-04T16:12:31.626Z,6.07
2022-12-04T16:14:58.767Z,6.05
2022-12-04T16:17:35.852Z,6.03
2022-12-04T16:20:04.493Z,6.22
2022-12-04T16:22:31.638Z,5.88
2022-12-04T16:24:58.653Z,5.87
2022-12-04T16:27:25.153Z,6.23
2022-12-04T16:29:52.521Z,6.33
2022-12-04T16:32:24.097Z,6.15
2022-12-04T16:34:50.880Z,6.11
2022-12-04T16:37:22.195Z,6.14
2022-12-04T16:39:49.662Z,6.03
2022-12-04T16:42:27.642Z,5.96
2022-12-04T16:44:54.980Z,5.99
2022-12-04T16:47:21.787Z,5.89
2022-12-04T16:49:50.351Z,5.98
2022-12-04T16:52:18.007Z,5.95
2022-12-04T16:54:45.178Z,5.86
2022-12-04T16:57:11.326Z,5.76
2022-12-04T16:59:37.825Z,5.95
2022-12-04T17:02:12.424Z,6.03
2022-12-04T17:04:39.190Z,6.09
2022-12-04T17:07:05.751Z,6.16
2022-12-04T17:09:32.429Z,6.02
2022-12-04T17:11:58.807Z,6.11
2022-12-04T17:14:25.673Z,6.04
2022-12-04T17:16:54.133Z,6.24
2022-12-04T17:19:20.679Z,6.05
2022-12-04T17:21:47.332Z,6.15
2022-12-04T17:24:14.674Z,5.81
2022-12-04T17:26:41.125Z,5.99
2022-12-04T17:29:07.837Z,5.97
2022-12-04T17:31:34.102Z,6.21
2022-12-04T17:34:01.008Z,6.09
2022-12-04T17:36:27.428Z,6.09
2022-12-04T17:38:56.226Z,6.12
2022-12-04T17:41:22.948Z,6.13
2022-12-04T17:43:49.709Z,6.00
2022-12-04T17:46:20.937Z,5.99
2022-12-04T17:48:48.249Z,6.24
2022-12-04T17:51:18.136Z,6.33
2022-12-04T17:53:46.402Z,6.35
2022-12-04T17:56:16.905Z,6.26
2022-12-04T17:58:44.514Z,5.94
2022-12-04T18:01:14.164Z,5.95
2022-12-04T18:03:42.775Z,6.20
2022-12-04T18:06:16.943Z,6.32
2022-12-04T18:08:49.862Z,6.12
2022-12-04T18:11:19.811Z,6.08
2022-12-04T18:13:47.739Z,6.18
2022-12-04T18:16:14.051Z,6.25
2022-12-04T18:18:40.658Z,6.22
2022-12-04T18:21:09.348Z,6.15
2022-12-04T18:23:46.357Z,6.19
2022-12-04T18:26:16.795Z,5.97
2022-12-04T18:28:44.352Z,5.85
2022-12-04T18:31:11.449Z,6.03
2022-12-04T18:33:40.068Z,6.07
2022-12-04T18:36:13.091Z,6.06
2022-12-04T18:38:39.904Z,6.26
2022-12-04T18:41:09.264Z,6.30
2022-12-04T18:43:38.573Z,6.10
2022-12-04T18:46:08.138Z,6.16
2022-12-04T18:48:36.460Z,6.05
2022-12-04T18:51:17.706Z,6.20
2022-12-04T18:53:47.541Z,6.09
2022-12-04T18:56:14.633Z,6.15
2022-12-04T18:58:42.190Z,6.35
2022-12-04T19:01:19.314Z,6.17
2022-12-04T19:03:47.116Z,6.28
2022-12-04T19:06:15.182Z,6.43
2022-12-04T19:08:45.129Z,6.28
2022-12-04T19:11:14.436Z,6.39
2022-12-04T19:13:41.556Z,6.32
2022-12-04T19:16:16.338Z,6.18
2022-12-04T19:18:47.167Z,6.33
2022-12-04T19:21:14.687Z,6.38
2022-12-04T19:23:42.317Z,6.57
2022-12-04T19:26:08.859Z,6.49
2022-12-04T19:28:35.924Z,6.49
2022-12-04T19:31:02.485Z,6.52
2022-12-04T19:33:29.240Z,6.24
2022-12-04T19:36:01.586Z,6.03
2022-12-04T19:38:29.136Z,5.99
2022-12-04T19:41:23.452Z,5.87
2022-12-04T19:43:54.026Z,6.02
2022-12-04T19:46:22.294Z,5.90
2022-12-04T19:48:49.574Z,5.74
2022-12-04T19:51:18.956Z,5.79
2022-12-04T19:53:48.144Z,5.68
2022-12-04T19:56:23.929Z,5.74
2022-12-04T19:58:52.045Z,5.72
2022-12-04T20:01:24.385Z,5.90
2022-12-04T20:03:51.353Z,5.84
2022-12-04T20:06:20.202Z,5.67
2022-12-04T20:08:52.437Z,5.61
2022-12-04T20:11:19.637Z,5.69
2022-12-04T20:13:48.478Z,5.65
2022-12-04T20:16:17.680Z,5.82
2022-12-04T20:18:44.979Z,5.85
2022-12-04T20:21:12.646Z,5.92
2022-12-04T20:23:40.403Z,5.90
2022-12-04T20:26:12.966Z,6.11
2022-12-04T20:28:40.941Z,5.97
2022-12-04T20:31:16.709Z,5.89
2022-12-04T20:33:46.086Z,5.81
2022-12-04T20:36:15.096Z,5.90
2022-12-04T20:38:42.097Z,5.73
2022-12-04T20:41:12.686Z,5.67
2022-12-04T20:43:41.783Z,5.82
2022-12-04T20:46:30.987Z,6.02
2022-12-04T20:48:59.883Z,6.11
2022-12-04T20:51:29.587Z,5.94
2022-12-04T20:53:59.851Z,6.13
2022-12-04T20:56:32.469Z,6.01
2022-12-04T20:59:01.490Z,6.19
2022-12-04T21:01:28.766Z,6.01
2022-12-04T21:03:59.386Z,5.81
2022-12-04T21:06:35.015Z,5.66
2022-12-04T21:09:07.781Z,5.62
2022-12-04T21:11:39.814Z,5.99
2022-12-04T21:14:29.819Z,5.82
2022-12-04T21:16:57.047Z,5.93
2022-12-04T21:19:26.570Z,5.79
2022-12-04T21:21:53.824Z,5.78
2022-12-04T21:24:22.082Z,5.80
2022-12-04T21:26:48.786Z,5.74
2022-12-04T21:29:15.355Z,5.82
2022-12-04T21:31:41.641Z,5.68
2022-12-04T21:34:11.391Z,5.86
2022-12-04T21:36:37.714Z,5.78
2022-12-04T21:39:04.731Z,5.66
2022-12-04T21:41:49.817Z,5.70
2022-12-04T21:44:18.295Z,5.59
2022-12-04T21:46:45.569Z,5.59
2022-12-04T21:49:13.223Z,5.75
2022-12-04T21:51:56.681Z,5.49
2022-12-04T21:54:25.733Z,5.77
2022-12-04T21:56:52.274Z,5.85
2022-12-04T21:59:18.836Z,5.82
2022-12-04T22:01:46.482Z,5.78
2022-12-04T22:04:13.299Z,5.78
2022-12-04T22:06:39.649Z,5.77
2022-12-04T22:09:08.231Z,5.69
2022-12-04T22:11:34.745Z,5.56
2022-12-04T22:14:01.433Z,5.63
2022-12-04T22:16:30.570Z,5.62
2022-12-04T22:18:58.695Z,5.63
2022-12-04T22:21:26.183Z,5.63
2022-12-04T22:23:57.113Z,5.65
2022-12-04T22:26:23.650Z,5.65
2022-12-04T22:28:50.512Z,5.80
2022-12-04T22:31:19.453Z,5.54
2022-12-04T22:33:51.170Z,5.77
2022-12-04T22:36:20.445Z,5.63
2022-12-04T22:39:08.153Z,5.60
2022-12-04T22:41:34.506Z,5.56
2022-12-04T22:44:00.958Z,5.72
2022-12-04T22:46:27.192Z,5.92
2022-12-04T22:48:53.720Z,5.55
2022-12-04T22:51:21.002Z,5.36
2022-12-04T22:53:52.614Z,5.37
2022-12-04T22:56:20.396Z,5.52
2022-12-04T22:58:47.285Z,5.39
2022-12-04T23:01:28.216Z,5.40
2022-12-04T23:03:55.370Z,5.46
2022-12-04T23:06:24.059Z,5.55
2022-12-04T23:08:59.106Z,5.34
2022-12-04T23:11:26.254Z,5.42
2022-12-04T23:13:59.300Z,5.32
2022-12-04T23:16:26.648Z,5.19
2022-12-04T23:18:53.335Z,5.32
2022-12-04T23:21:21.256Z,5.51
2022-12-04T23:23:49.451Z,5.41
2022-12-04T23:26:19.508Z,5.54
2022-12-04T23:28:46.664Z,5.14
2022-12-04T23:31:12.962Z,4.99
2022-12-04T23:33:40.837Z,5.00
2022-12-04T23:36:09.095Z,5.07
2022-12-04T23:38:37.346Z,5.18
2022-12-04T23:41:10.918Z,5.16
2022-12-04T23:43:37.944Z,5.30
2022-12-04T23:46:10.598Z,5.22
2022-12-04T23:48:39.033Z,5.41
2022-12-04T23:51:06.273Z,5.30
2022-12-04T23:53:32.661Z,5.28
2022-12-04T23:56:00.544Z,5.22
2022-12-04T23:58:27.226Z,5.03
